CDT,Max TemperatureF,Mean TemperatureF,Min TemperatureF,Max Dew PointF,MeanDew PointF,Min DewpointF,Max Humidity, Mean Humidity, Min Humidity, Max Sea Level PressureIn, Mean Sea Level PressureIn, Min Sea Level PressureIn, Max VisibilityMiles, Mean VisibilityMiles, Min VisibilityMiles, Max Wind SpeedMPH, Mean Wind SpeedMPH, Max Gust SpeedMPH,PrecipitationIn, CloudCover, Events, WindDirDegrees
2013-8-1,77,66,54,53,50,48,89,64,38,30.07,30.02,29.96,10,10,10,16,7,23,0.00,0,,281
2013-8-2,74,63,51,53,51,47,96,69,41,30.15,30.05,29.99,10,10,10,13,4,16,T,1,,355
2013-8-3,75,65,54,54,52,49,93,67,41,30.24,30.19,30.16,10,10,10,14,8,21,T,5,,91
2013-8-4,70,64,57,60,56,48,93,78,63,30.17,30.03,29.91,10,10,7,20,8,24,T,6,,159
2013-8-5,80,69,58,61,54,46,90,61,32,29.97,29.90,29.77,10,10,7,15,4,17,0.04,4,Rain-Thunderstorm,302
2013-8-6,70,64,58,61,57,55,93,77,61,29.96,29.85,29.70,10,8,1,20,6,23,0.83,7,Rain,355
2013-8-7,70,60,50,56,52,46,100,76,52,30.07,30.03,29.97,10,7,0,15,5,18,0.08,3,Fog-Rain,287
2013-8-8,70,59,48,55,49,46,93,71,49,30.14,30.09,30.06,10,10,10,15,7,21,0.00,3,,282
2013-8-9,67,58,48,52,49,45,89,74,58,30.21,30.18,30.14,10,10,10,20,8,24,0.00,4,,307
2013-8-10,72,60,48,56,51,47,93,71,49,30.22,30.16,30.09,10,10,10,14,3,17,T,4,Rain,304
2013-8-11,76,63,50,55,51,48,100,69,38,30.18,30.14,30.09,10,6,0,8,3,10,0.00,3,Fog,343
2013-8-12,78,63,48,56,50,46,93,63,33,30.17,30.14,30.12,10,10,10,10,4,21,0.00,0,,70
2013-8-13,77,63,49,53,51,48,93,67,41,30.24,30.20,30.15,10,8,2,16,6,20,0.00,0,,110
2013-8-14,76,67,57,54,52,48,80,63,46,30.16,30.10,30.02,10,10,10,21,8,26,0.25,5,,101
2013-8-15,82,71,59,63,59,54,93,71,48,30.07,30.02,29.98,10,9,2,14,8,21,0.13,4,Rain-Thunderstorm,153
2013-8-16,84,74,64,60,57,55,73,57,40,29.99,29.97,29.92,10,10,10,21,12,25,0.00,0,,183
2013-8-17,88,77,65,66,61,56,79,61,43,29.91,29.85,29.78,10,10,10,23,10,31,0.00,0,,167
2013-8-18,87,76,64,67,62,55,93,68,42,29.91,29.84,29.77,10,10,6,23,8,31,0.00,1,,243
2013-8-19,96,81,66,63,58,54,73,50,26,29.86,29.78,29.70,10,10,10,18,10,25,0.00,0,,222
2013-8-20,93,78,62,60,56,51,73,50,26,29.87,29.73,29.69,10,10,10,22,10,30,0.00,0,,237
2013-8-21,77,66,54,55,49,44,93,63,33,30.16,30.04,29.88,10,9,2,14,5,20,0.00,3,,352
2013-8-22,81,66,50,50,44,37,83,53,23,30.22,30.16,30.05,10,10,10,12,6,18,0.00,1,,115
2013-8-23,89,74,58,66,59,49,73,57,41,30.04,29.87,29.73,10,10,9,21,12,28,0.00,1,,136
2013-8-24,88,78,67,68,65,61,93,68,43,29.80,29.73,29.68,10,9,6,16,5,22,0.05,1,Rain,173
2013-8-25,94,79,63,64,58,50,84,54,23,29.93,29.89,29.81,10,10,9,8,3,14,0.00,0,,202
2013-8-26,87,74,61,70,64,57,90,68,46,29.96,29.89,29.81,10,8,1,6,6,6,0.77,3,Rain-Thunderstorm,129
2013-8-27,88,77,65,68,66,63,93,72,50,29.93,29.88,29.83,10,10,8,10,4,12,0.00,0,,207
2013-8-28,91,78,64,67,64,62,87,64,41,29.97,29.92,29.87,10,10,10,13,5,17,0.00,1,,144
2013-8-29,85,76,66,67,66,64,93,72,51,29.97,29.90,29.81,10,9,1,28,5,36,0.61,4,Rain-Thunderstorm,321
2013-8-30,89,77,64,67,64,62,93,68,43,29.99,29.90,29.76,10,9,2,20,8,25,0.00,0,,166
2013-8-31,79,70,60,63,56,48,87,62,36,29.95,29.81,29.73,10,10,10,29,15,36,0.00,0,,269